createdAt,value
2022-08-18T00:02:11.485Z,83.60
2022-08-18T00:04:49.749Z,88.30
2022-08-18T00:07:25.870Z,85.33
2022-08-18T00:10:01.300Z,85.80
2022-08-18T00:12:43.234Z,88.90
2022-08-18T00:15:16.539Z,88.63
2022-08-18T00:17:48.529Z,84.57
2022-08-18T00:20:23.970Z,85.87
2022-08-18T00:22:58.635Z,88.90
2022-08-18T00:25:30.221Z,84.10
2022-08-18T00:28:02.225Z,89.13
2022-08-18T00:30:34.457Z,90.10
2022-08-18T00:33:09.082Z,88.67
2022-08-18T00:35:40.864Z,87.87
2022-08-18T00:38:24.786Z,86.77
2022-08-18T00:43:35.951Z,86.33
2022-08-18T00:46:11.664Z,89.37
2022-08-18T00:48:48.838Z,88.67
2022-08-18T00:51:46.806Z,86.20
2022-08-18T00:54:26.477Z,86.30
2022-08-18T00:57:06.650Z,84.57
2022-08-18T00:59:50.063Z,87.00
2022-08-18T01:02:31.814Z,88.70
2022-08-18T01:05:09.119Z,87.00
2022-08-18T01:07:46.602Z,89.07
2022-08-18T01:10:22.549Z,89.57
2022-08-18T01:12:57.774Z,86.43
2022-08-18T01:15:30.529Z,87.30
2022-08-18T01:18:29.848Z,87.53
2022-08-18T01:21:33.785Z,88.27
2022-08-18T01:24:08.968Z,85.30
2022-08-18T01:26:46.457Z,85.40
2022-08-18T01:29:19.754Z,86.07
2022-08-18T01:31:57.169Z,83.20
2022-08-18T01:34:31.548Z,82.60
2022-08-18T01:37:06.541Z,86.00
2022-08-18T01:41:21.240Z,85.07
2022-08-18T01:42:33.583Z,84.00
2022-08-18T01:45:08.372Z,84.60
2022-08-18T01:47:47.110Z,83.53
2022-08-18T01:50:20.143Z,85.53
2022-08-18T01:52:53.606Z,84.37
2022-08-18T01:55:28.545Z,86.70
2022-08-18T01:58:01.589Z,88.07
2022-08-18T02:00:33.806Z,81.13
2022-08-18T02:03:11.375Z,86.33
2022-08-18T02:05:49.722Z,85.67
2022-08-18T02:08:22.135Z,85.23
2022-08-18T02:11:03.529Z,83.27
2022-08-18T02:13:35.561Z,82.27
2022-08-18T02:16:07.889Z,85.30
2022-08-18T02:18:48.280Z,86.50
2022-08-18T02:21:20.778Z,82.47
2022-08-18T02:23:54.423Z,84.00
2022-08-18T02:26:26.066Z,87.78
2022-08-18T02:28:57.706Z,84.57
2022-08-18T02:31:29.342Z,83.97
2022-08-18T02:34:01.096Z,80.53
2022-08-18T02:36:32.687Z,84.43
2022-08-18T02:39:04.402Z,83.70
2022-08-18T02:41:36.632Z,86.10
2022-08-18T02:44:09.342Z,85.87
2022-08-18T02:46:41.004Z,84.20
2022-08-18T02:49:12.787Z,85.57
2022-08-18T02:51:44.419Z,78.33
2022-08-18T02:54:16.039Z,82.40
2022-08-18T02:56:47.940Z,81.67
2022-08-18T02:59:26.424Z,84.97
2022-08-18T03:01:58.646Z,83.03
2022-08-18T03:04:31.247Z,81.10
2022-08-18T03:07:05.359Z,78.53
2022-08-18T03:09:37.494Z,84.25
2022-08-18T03:12:09.733Z,87.17
2022-08-18T03:14:44.194Z,81.07
2022-08-18T03:17:15.873Z,86.03
2022-08-18T03:19:47.981Z,89.27
2022-08-18T03:22:28.300Z,87.80
2022-08-18T03:25:05.623Z,90.77
2022-08-18T03:27:37.227Z,85.47
2022-08-18T03:30:11.264Z,90.00
2022-08-18T03:35:17.823Z,90.90
2022-08-18T03:37:50.695Z,93.67
2022-08-18T03:40:22.404Z,89.67
2022-08-18T03:42:54.275Z,93.37
2022-08-18T03:45:28.567Z,93.43
2022-08-18T03:50:32.946Z,90.73
2022-08-18T03:53:07.409Z,88.97
2022-08-18T03:55:42.137Z,92.63
2022-08-18T03:58:15.509Z,96.37
2022-08-18T04:00:47.389Z,92.65
2022-08-18T04:03:19.538Z,90.20
2022-08-18T04:05:51.122Z,84.37
2022-08-18T04:08:22.770Z,92.67
2022-08-18T04:11:05.650Z,93.53
2022-08-18T04:13:39.339Z,91.30
2022-08-18T04:16:11.648Z,88.45
2022-08-18T04:18:43.548Z,92.27
2022-08-18T04:21:15.141Z,94.47
2022-08-18T04:23:46.797Z,87.57
2022-08-18T04:26:20.013Z,89.23
2022-08-18T04:28:51.688Z,90.23
2022-08-18T04:31:24.798Z,91.73
2022-08-18T04:34:03.703Z,91.90
2022-08-18T04:36:36.380Z,89.90
2022-08-18T04:39:10.079Z,90.90
2022-08-18T04:41:47.510Z,91.43
2022-08-18T04:44:21.736Z,90.37
2022-08-18T04:49:26.347Z,97.53
2022-08-18T04:52:39.314Z,92.00
2022-08-18T04:55:10.357Z,90.23
2022-08-18T04:57:42.841Z,93.30
2022-08-18T05:00:14.746Z,95.13
2022-08-18T05:02:46.571Z,93.63
2022-08-18T05:05:18.346Z,94.57
2022-08-18T05:07:49.931Z,94.93
2022-08-18T05:10:21.537Z,99.50
2022-08-18T05:12:53.110Z,101.17
2022-08-18T05:15:24.800Z,100.10
2022-08-18T05:17:56.686Z,93.80
2022-08-18T05:20:33.390Z,95.28
2022-08-18T05:23:07.272Z,99.03
2022-08-18T05:25:40.084Z,96.80
2022-08-18T05:28:13.471Z,98.53
2022-08-18T05:30:45.183Z,98.75
2022-08-18T05:33:17.230Z,99.03
2022-08-18T05:35:55.016Z,95.20
2022-08-18T05:38:42.432Z,105.00
2022-08-18T05:41:28.091Z,103.53
2022-08-18T05:44:01.474Z,104.03
2022-08-18T05:46:50.095Z,101.82
2022-08-18T05:49:24.405Z,103.93
2022-08-18T05:55:03.786Z,105.37
2022-08-18T05:57:43.454Z,103.27
2022-08-18T06:00:21.221Z,107.63
2022-08-18T06:03:45.505Z,106.83
2022-08-18T06:06:24.140Z,105.75
2022-08-18T06:09:18.343Z,104.60
2022-08-18T06:11:50.470Z,102.75
2022-08-18T06:14:22.639Z,101.37
2022-08-18T06:17:21.666Z,106.07
2022-08-18T06:20:17.524Z,105.63
2022-08-18T06:23:06.270Z,103.60
2022-08-18T06:25:58.015Z,100.97
2022-08-18T06:29:14.783Z,103.43
2022-08-18T06:32:05.385Z,106.70
2022-08-18T06:35:04.942Z,103.00
2022-08-18T06:38:03.703Z,100.37
2022-08-18T06:40:35.542Z,100.23
2022-08-18T06:43:11.894Z,100.33
2022-08-18T06:45:48.530Z,101.17
2022-08-18T06:48:50.905Z,105.63
2022-08-18T06:51:27.594Z,102.10
2022-08-18T06:54:24.561Z,99.13
2022-08-18T06:56:57.774Z,103.13
2022-08-18T06:59:34.704Z,98.60
2022-08-18T07:02:21.285Z,101.50
2022-08-18T07:05:05.894Z,105.60
2022-08-18T07:07:40.875Z,102.63
2022-08-18T07:10:15.983Z,106.43
2022-08-18T07:12:47.573Z,102.17
2022-08-18T07:15:24.419Z,101.17
2022-08-18T07:18:05.329Z,104.80
2022-08-18T07:20:54.133Z,107.27
2022-08-18T07:23:34.724Z,102.93
2022-08-18T07:26:12.055Z,102.40
2022-08-18T07:28:52.974Z,101.97
2022-08-18T07:31:53.042Z,101.87
2022-08-18T07:34:37.294Z,102.57
2022-08-18T07:37:28.607Z,103.57
2022-08-18T07:40:27.490Z,108.17
2022-08-18T07:43:03.426Z,106.07
2022-08-18T07:45:42.827Z,104.50
2022-08-18T07:48:38.170Z,105.73
2022-08-18T07:51:37.549Z,106.27
2022-08-18T07:54:48.953Z,104.17
2022-08-18T07:57:42.911Z,102.90
2022-08-18T08:00:55.318Z,108.53
2022-08-18T08:03:50.317Z,107.23
2022-08-18T08:07:12.886Z,102.50
2022-08-18T08:09:58.403Z,108.30
2022-08-18T08:13:11.125Z,108.47
2022-08-18T08:16:16.740Z,108.13
2022-08-18T08:19:16.476Z,110.77
2022-08-18T08:22:04.695Z,112.30
2022-08-18T08:24:47.969Z,115.07
2022-08-18T08:27:56.696Z,115.20
2022-08-18T08:30:31.974Z,115.70
2022-08-18T08:33:18.071Z,113.03
2022-08-18T08:35:58.804Z,118.35
2022-08-18T08:38:47.097Z,118.23
2022-08-18T08:41:26.661Z,118.80
2022-08-18T08:44:24.817Z,117.37
2022-08-18T08:47:02.583Z,119.73
2022-08-18T08:50:00.538Z,123.53
2022-08-18T08:52:44.699Z,125.43
2022-08-18T08:55:25.412Z,119.57
2022-08-18T08:58:15.508Z,122.72
2022-08-18T09:00:49.725Z,118.43
2022-08-18T09:04:00.883Z,122.57
2022-08-18T09:06:32.522Z,121.15
2022-08-18T09:09:19.075Z,128.35
2022-08-18T09:12:31.994Z,125.93
2022-08-18T09:15:18.307Z,122.93
2022-08-18T09:17:58.863Z,121.30
2022-08-18T09:21:16.033Z,127.30
2022-08-18T09:23:53.179Z,125.05
2022-08-18T09:26:42.568Z,126.20
2022-08-18T09:29:37.153Z,123.32
2022-08-18T09:32:18.695Z,125.05
2022-08-18T09:35:23.138Z,124.50
2022-08-18T09:38:30.325Z,123.05
2022-08-18T09:41:35.202Z,120.45
2022-08-18T09:44:21.517Z,125.00
2022-08-18T09:47:07.829Z,128.05
2022-08-18T09:49:47.969Z,121.05
2022-08-18T09:52:25.431Z,122.35
2022-08-18T09:54:57.429Z,124.20
2022-08-18T09:57:42.101Z,125.70
2022-08-18T10:00:33.509Z,124.25
2022-08-18T10:03:13.923Z,125.00
2022-08-18T10:06:07.098Z,122.38
2022-08-18T10:09:01.929Z,126.35
2022-08-18T10:11:58.297Z,121.57
2022-08-18T10:14:37.039Z,122.32
2022-08-18T10:17:36.333Z,122.25
2022-08-18T10:20:23.900Z,120.95
2022-08-18T10:22:58.203Z,119.47
2022-08-18T10:25:33.875Z,121.03
2022-08-18T10:28:10.137Z,121.18
2022-08-18T10:30:57.302Z,122.10
2022-08-18T10:34:17.226Z,117.88
2022-08-18T10:36:54.940Z,122.68
2022-08-18T10:39:41.220Z,124.85
2022-08-18T10:42:31.525Z,122.07
2022-08-18T10:45:06.955Z,123.05
2022-08-18T10:47:38.688Z,121.60
2022-08-18T10:50:26.748Z,116.13
2022-08-18T10:53:17.006Z,116.32
2022-08-18T10:56:26.514Z,118.00
2022-08-18T10:59:19.487Z,120.90
2022-08-18T11:02:20.304Z,122.93
2022-08-18T11:04:58.985Z,125.45
2022-08-18T11:07:34.392Z,119.57
2022-08-18T11:10:57.489Z,119.00
2022-08-18T11:13:49.977Z,116.25
2022-08-18T11:16:42.922Z,118.43
2022-08-18T11:19:22.684Z,118.68
2022-08-18T11:21:54.836Z,116.90
2022-08-18T11:24:31.577Z,123.30
2022-08-18T11:27:22.689Z,120.07
2022-08-18T11:30:01.041Z,118.93
2022-08-18T11:32:44.226Z,123.63
2022-08-18T11:35:32.170Z,121.78
2022-08-18T11:38:13.579Z,118.13
2022-08-18T11:41:19.927Z,127.18
2022-08-18T11:43:57.946Z,121.43
2022-08-18T11:46:38.876Z,119.70
2022-08-18T11:49:30.079Z,122.32
2022-08-18T11:52:32.890Z,118.38
2022-08-18T11:55:24.552Z,119.32
2022-08-18T11:57:59.549Z,121.50
2022-08-18T12:00:42.722Z,117.50
2022-08-18T12:03:41.242Z,116.97
2022-08-18T12:06:27.900Z,121.43
2022-08-18T12:09:07.511Z,119.00
2022-08-18T12:11:53.760Z,125.70
2022-08-18T12:14:35.347Z,121.78
2022-08-18T12:17:14.049Z,120.30
2022-08-18T12:19:48.253Z,119.78
2022-08-18T12:22:28.202Z,122.70
2022-08-18T12:24:59.918Z,125.20
2022-08-18T12:27:33.758Z,124.32
2022-08-18T12:30:07.456Z,123.55
2022-08-18T12:32:50.513Z,119.50
2022-08-18T12:35:22.741Z,118.05
2022-08-18T12:38:03.158Z,113.25
2022-08-18T12:40:43.127Z,119.72
2022-08-18T12:43:14.791Z,115.80
2022-08-18T12:45:46.661Z,119.97
2022-08-18T12:48:18.753Z,120.13
2022-08-18T12:50:58.598Z,120.78
2022-08-18T12:53:38.263Z,119.97
2022-08-18T12:56:30.401Z,120.47
2022-08-18T12:59:05.218Z,121.22
2022-08-18T13:01:41.568Z,122.43
2022-08-18T13:04:15.688Z,117.60
2022-08-18T13:06:59.243Z,120.18
2022-08-18T13:09:53.576Z,120.25
2022-08-18T13:12:26.179Z,116.00
2022-08-18T13:14:59.206Z,120.80
2022-08-18T13:17:33.674Z,123.00
2022-08-18T13:20:10.711Z,117.65
2022-08-18T13:22:45.639Z,118.43
2022-08-18T13:25:32.748Z,116.95
2022-08-18T13:28:09.550Z,114.57
2022-08-18T13:30:46.263Z,122.03
2022-08-18T13:33:53.614Z,121.25
2022-08-18T13:36:12.615Z,119.45
2022-08-18T13:38:44.352Z,120.65
2022-08-18T13:41:16.793Z,118.93
2022-08-18T13:43:48.610Z,115.68
2022-08-18T13:46:24.077Z,118.75
2022-08-18T13:49:02.288Z,120.03
2022-08-18T13:51:35.489Z,118.00
2022-08-18T13:54:29.700Z,118.50
2022-08-18T13:57:04.382Z,119.30
2022-08-18T14:02:10.585Z,123.18
2022-08-18T14:04:42.233Z,124.32
2022-08-18T14:07:19.320Z,117.90
2022-08-18T14:10:04.999Z,122.85
2022-08-18T14:12:37.862Z,120.97
2022-08-18T14:15:16.576Z,117.43
2022-08-18T14:17:48.362Z,121.18
2022-08-18T14:20:38.959Z,119.30
2022-08-18T14:23:38.445Z,119.28
2022-08-18T14:26:34.211Z,118.53
2022-08-18T14:29:05.827Z,121.82
2022-08-18T14:31:37.580Z,117.63
2022-08-18T14:34:09.737Z,118.85
2022-08-18T14:36:42.410Z,122.55
2022-08-18T14:39:15.668Z,119.38
2022-08-18T14:41:54.653Z,119.63
2022-08-18T14:44:31.923Z,119.28
2022-08-18T14:47:04.025Z,120.18
2022-08-18T14:49:36.178Z,117.90
2022-08-18T14:52:19.593Z,114.60
2022-08-18T14:54:51.413Z,117.80
2022-08-18T14:57:26.470Z,117.75
2022-08-18T14:59:58.669Z,121.35
2022-08-18T15:02:30.566Z,117.57
2022-08-18T15:05:02.440Z,122.45
2022-08-18T15:07:52.461Z,117.38
2022-08-18T15:10:27.934Z,120.60
2022-08-18T15:13:02.925Z,121.00
2022-08-18T15:15:50.987Z,118.50
2022-08-18T15:18:23.975Z,112.93
2022-08-18T15:21:19.607Z,116.30
2022-08-18T15:24:26.535Z,114.85
2022-08-18T15:27:05.678Z,121.38
2022-08-18T15:29:41.486Z,115.07
2022-08-18T15:32:17.533Z,116.72
2022-08-18T15:34:51.412Z,117.15
2022-08-18T15:40:21.875Z,121.20
2022-08-18T15:43:10.528Z,119.38
2022-08-18T15:45:58.007Z,117.88
2022-08-18T15:48:30.074Z,119.65
2022-08-18T15:51:11.501Z,121.03
2022-08-18T15:53:45.750Z,117.43
2022-08-18T15:56:21.075Z,120.43
2022-08-18T15:58:52.867Z,125.03
2022-08-18T16:01:30.223Z,116.80
2022-08-18T16:04:05.741Z,119.60
2022-08-18T16:09:17.933Z,117.38
2022-08-18T16:11:50.001Z,117.50
2022-08-18T16:14:21.580Z,120.93
2022-08-18T16:16:55.237Z,120.32
2022-08-18T16:22:06.287Z,121.70
2022-08-18T16:24:37.947Z,120.03
2022-08-18T16:27:09.595Z,121.00
2022-08-18T16:29:41.254Z,121.55
2022-08-18T16:32:16.173Z,117.93
2022-08-18T16:34:49.067Z,119.28
2022-08-18T16:37:20.694Z,121.55
2022-08-18T16:39:52.852Z,119.15
2022-08-18T16:42:24.825Z,120.20
2022-08-18T16:44:56.397Z,120.75
2022-08-18T16:47:28.336Z,117.88
2022-08-18T16:50:00.181Z,116.70
2022-08-18T16:52:33.538Z,118.70
2022-08-18T16:55:07.660Z,117.30
2022-08-18T16:58:02.296Z,116.38
2022-08-18T17:00:54.852Z,114.65
2022-08-18T17:03:45.223Z,114.25
2022-08-18T17:06:18.699Z,122.03
2022-08-18T17:08:50.421Z,117.68
2022-08-18T17:11:23.663Z,115.45
2022-08-18T17:13:59.524Z,114.18
2022-08-18T17:16:31.212Z,112.85
2022-08-18T17:19:05.927Z,118.53
2022-08-18T17:21:38.006Z,111.85
2022-08-18T17:24:11.345Z,115.63
2022-08-18T17:26:59.716Z,119.45
2022-08-18T17:29:54.075Z,116.53
2022-08-18T17:35:29.073Z,118.65
2022-08-18T17:38:08.804Z,118.40
2022-08-18T17:40:46.423Z,119.35
2022-08-18T17:43:27.893Z,115.85
2022-08-18T17:46:18.509Z,116.13
2022-08-18T17:48:57.790Z,119.00
2022-08-18T17:51:35.376Z,113.53
2022-08-18T17:54:39.437Z,118.28
2022-08-18T17:57:23.804Z,118.45
2022-08-18T18:00:09.677Z,116.72
2022-08-18T18:02:45.514Z,118.03
2022-08-18T18:05:20.133Z,122.97
2022-08-18T18:07:51.907Z,118.15
2022-08-18T18:10:30.102Z,116.05
2022-08-18T18:13:32.414Z,115.22
2022-08-18T18:16:19.871Z,116.50
2022-08-18T18:19:05.816Z,116.97
2022-08-18T18:22:00.970Z,114.78
2022-08-18T18:24:32.693Z,116.73
2022-08-18T18:27:24.981Z,120.35
2022-08-18T18:30:07.609Z,117.07
2022-08-18T18:32:59.090Z,112.78
2022-08-18T18:35:54.947Z,113.80
2022-08-18T18:38:31.360Z,110.40
2022-08-18T18:41:20.451Z,112.10
2022-08-18T18:44:06.238Z,113.00
2022-08-18T18:47:01.204Z,112.00
2022-08-18T18:49:39.980Z,107.90
2022-08-18T18:52:25.460Z,113.30
2022-08-18T18:55:19.315Z,108.27
2022-08-18T18:58:15.944Z,108.00
2022-08-18T19:00:53.833Z,112.20
2022-08-18T19:03:29.101Z,110.37
2022-08-18T19:06:03.634Z,110.53
2022-08-18T19:08:35.915Z,108.30
2022-08-18T19:11:26.701Z,110.73
2022-08-18T19:14:07.576Z,118.03
2022-08-18T19:16:59.724Z,107.83
2022-08-18T19:19:39.372Z,110.03
2022-08-18T19:22:19.241Z,113.77
2022-08-18T19:25:07.323Z,109.87
2022-08-18T19:28:02.609Z,106.27
2022-08-18T19:30:40.622Z,110.57
2022-08-18T19:33:24.786Z,111.00
2022-08-18T19:36:08.334Z,108.73
2022-08-18T19:39:11.287Z,107.83
2022-08-18T19:41:52.813Z,109.50
2022-08-18T19:44:29.219Z,110.13
2022-08-18T19:47:28.003Z,109.07
2022-08-18T19:49:59.897Z,110.50
2022-08-18T19:52:46.035Z,108.33
2022-08-18T19:55:40.499Z,109.20
2022-08-18T19:59:04.811Z,111.63
2022-08-18T20:04:54.130Z,108.70
2022-08-18T20:07:31.492Z,106.80
2022-08-18T20:10:30.941Z,108.83
2022-08-18T20:13:32.608Z,110.70
2022-08-18T20:16:12.915Z,108.87
2022-08-18T20:18:49.025Z,110.33
2022-08-18T20:21:20.537Z,109.10
2022-08-18T20:24:05.026Z,109.23
2022-08-18T20:26:39.139Z,7.90
2022-08-18T20:29:18.993Z,7.70
2022-08-18T20:32:01.735Z,5.22
2022-08-18T20:34:35.442Z,5.95
2022-08-18T20:37:08.351Z,7.38
2022-08-18T20:39:46.898Z,6.43
2022-08-18T20:42:42.288Z,8.82
2022-08-18T20:45:28.756Z,6.10
2022-08-18T20:48:12.548Z,6.35
2022-08-18T20:50:54.218Z,7.65
2022-08-18T20:53:55.324Z,6.55
2022-08-18T20:56:37.438Z,7.28
2022-08-18T20:59:20.256Z,5.88
2022-08-18T21:01:58.275Z,6.28
2022-08-18T21:04:59.118Z,6.95
2022-08-18T21:07:38.941Z,6.75
2022-08-18T21:10:19.892Z,8.75
2022-08-18T21:12:57.149Z,6.28
2022-08-18T21:15:35.543Z,9.32
2022-08-18T21:18:24.494Z,8.35
2022-08-18T21:20:58.164Z,6.43
2022-08-18T21:23:34.513Z,4.88
2022-08-18T21:26:15.768Z,7.78
2022-08-18T21:28:51.893Z,11.18
2022-08-18T21:31:45.373Z,5.68
2022-08-18T21:34:35.602Z,8.55
2022-08-18T21:37:10.456Z,5.82
2022-08-18T21:40:01.256Z,7.47
2022-08-18T21:42:39.213Z,6.38
2022-08-18T21:45:23.221Z,9.77
2022-08-18T21:47:58.180Z,9.95
2022-08-18T21:50:34.816Z,9.40
2022-08-18T21:53:12.444Z,5.47
2022-08-18T21:55:47.327Z,9.05
2022-08-18T21:58:32.666Z,7.28
2022-08-18T22:01:11.932Z,7.07
2022-08-18T22:03:59.478Z,9.30
2022-08-18T22:06:40.587Z,8.23
2022-08-18T22:09:30.298Z,7.07
2022-08-18T22:12:52.047Z,6.43
2022-08-18T22:15:40.912Z,5.22
2022-08-18T22:18:18.306Z,7.50
2022-08-18T22:20:52.954Z,5.38
2022-08-18T22:24:06.185Z,5.55
2022-08-18T22:26:38.599Z,8.38
2022-08-18T22:29:10.130Z,8.10
2022-08-18T22:31:48.288Z,6.95
2022-08-18T22:34:28.198Z,6.88
2022-08-18T22:37:07.774Z,9.45
2022-08-18T22:39:46.127Z,7.05
2022-08-18T22:42:20.612Z,6.70
2022-08-18T22:44:53.205Z,7.68
2022-08-18T22:47:25.044Z,8.05
2022-08-18T22:49:57.355Z,30.73
2022-08-18T22:52:36.757Z,8.50
2022-08-18T22:55:10.783Z,6.68
2022-08-18T22:57:42.992Z,10.32
2022-08-18T23:00:19.278Z,7.05
2022-08-18T23:02:50.902Z,6.30
2022-08-18T23:05:23.276Z,7.70
2022-08-18T23:07:54.982Z,8.82
2022-08-18T23:10:26.694Z,7.80
2022-08-18T23:13:02.277Z,6.88
2022-08-18T23:15:43.634Z,9.98
2022-08-18T23:18:19.767Z,9.00
2022-08-18T23:20:59.057Z,15.18
2022-08-18T23:23:31.901Z,9.30
2022-08-18T23:26:03.589Z,11.70
2022-08-18T23:28:35.162Z,7.53
2022-08-18T23:31:06.830Z,9.13
2022-08-18T23:33:38.422Z,8.25
2022-08-18T23:36:10.587Z,10.93
2022-08-18T23:38:42.517Z,9.02
2022-08-18T23:41:16.276Z,9.27
2022-08-18T23:43:49.101Z,10.90
2022-08-18T23:46:28.739Z,11.00
2022-08-18T23:49:03.686Z,8.32
2022-08-18T23:51:49.062Z,11.15
2022-08-18T23:54:23.653Z,7.15
2022-08-18T23:56:55.405Z,9.90
2022-08-18T23:59:28.071Z,8.27
